sensor_id;sensor_type;location;lat;lon;timestamp;temperature;humidity
25352;DHT22;13304;48.464;8.712;2022-08-19T00:00:20;23.70;67.10
25352;DHT22;13304;48.464;8.712;2022-08-19T00:02:46;23.60;67.00
25352;DHT22;13304;48.464;8.712;2022-08-19T00:05:13;23.60;67.00
25352;DHT22;13304;48.464;8.712;2022-08-19T00:07:43;23.60;67.00
25352;DHT22;13304;48.464;8.712;2022-08-19T00:10:10;23.60;67.00
25352;DHT22;13304;48.464;8.712;2022-08-19T00:12:36;23.60;67.00
25352;DHT22;13304;48.464;8.712;2022-08-19T00:15:06;23.60;67.20
25352;DHT22;13304;48.464;8.712;2022-08-19T00:17:32;23.60;67.20
25352;DHT22;13304;48.464;8.712;2022-08-19T00:19:57;23.60;67.10
25352;DHT22;13304;48.464;8.712;2022-08-19T00:22:23;23.60;67.10
25352;DHT22;13304;48.464;8.712;2022-08-19T00:24:49;23.60;67.10
25352;DHT22;13304;48.464;8.712;2022-08-19T00:27:15;23.60;67.00
25352;DHT22;13304;48.464;8.712;2022-08-19T00:29:41;23.60;66.90
25352;DHT22;13304;48.464;8.712;2022-08-19T00:32:07;23.60;67.00
25352;DHT22;13304;48.464;8.712;2022-08-19T00:34:33;23.60;67.10
25352;DHT22;13304;48.464;8.712;2022-08-19T00:37:01;23.60;67.00
25352;DHT22;13304;48.464;8.712;2022-08-19T00:39:27;23.50;67.80
25352;DHT22;13304;48.464;8.712;2022-08-19T00:41:53;23.60;67.10
25352;DHT22;13304;48.464;8.712;2022-08-19T00:44:25;23.50;67.10
25352;DHT22;13304;48.464;8.712;2022-08-19T00:46:52;23.50;67.30
25352;DHT22;13304;48.464;8.712;2022-08-19T00:51:55;23.50;67.60
25352;DHT22;13304;48.464;8.712;2022-08-19T00:54:23;23.40;67.60
25352;DHT22;13304;48.464;8.712;2022-08-19T00:56:50;23.50;67.80
25352;DHT22;13304;48.464;8.712;2022-08-19T00:59:18;23.40;68.00
25352;DHT22;13304;48.464;8.712;2022-08-19T01:01:45;23.40;68.30
25352;DHT22;13304;48.464;8.712;2022-08-19T01:04:12;23.40;68.60
25352;DHT22;13304;48.464;8.712;2022-08-19T01:06:39;23.40;68.90
25352;DHT22;13304;48.464;8.712;2022-08-19T01:09:07;23.40;69.90
25352;DHT22;13304;48.464;8.712;2022-08-19T01:11:36;23.40;69.30
25352;DHT22;13304;48.464;8.712;2022-08-19T01:14:04;23.30;69.60
25352;DHT22;13304;48.464;8.712;2022-08-19T01:16:31;23.30;69.70
25352;DHT22;13304;48.464;8.712;2022-08-19T01:18:57;23.30;70.00
25352;DHT22;13304;48.464;8.712;2022-08-19T01:21:39;23.30;70.40
25352;DHT22;13304;48.464;8.712;2022-08-19T01:24:06;23.20;71.20
25352;DHT22;13304;48.464;8.712;2022-08-19T01:26:40;23.20;70.70
25352;DHT22;13304;48.464;8.712;2022-08-19T01:29:08;23.10;71.20
25352;DHT22;13304;48.464;8.712;2022-08-19T01:31:34;23.10;71.20
25352;DHT22;13304;48.464;8.712;2022-08-19T01:34:01;23.10;71.70
25352;DHT22;13304;48.464;8.712;2022-08-19T01:36:31;23.10;71.90
25352;DHT22;13304;48.464;8.712;2022-08-19T01:38:58;23.00;72.30
25352;DHT22;13304;48.464;8.712;2022-08-19T01:41:25;23.00;72.50
25352;DHT22;13304;48.464;8.712;2022-08-19T01:43:53;23.00;72.90
25352;DHT22;13304;48.464;8.712;2022-08-19T01:46:19;22.90;73.40
25352;DHT22;13304;48.464;8.712;2022-08-19T01:48:48;22.90;73.50
25352;DHT22;13304;48.464;8.712;2022-08-19T01:51:17;22.90;73.90
25352;DHT22;13304;48.464;8.712;2022-08-19T01:53:47;22.90;73.80
25352;DHT22;13304;48.464;8.712;2022-08-19T01:56:13;22.80;74.40
25352;DHT22;13304;48.464;8.712;2022-08-19T01:58:41;22.80;74.20
25352;DHT22;13304;48.464;8.712;2022-08-19T02:01:11;22.80;74.60
25352;DHT22;13304;48.464;8.712;2022-08-19T02:03:44;22.70;74.60
25352;DHT22;13304;48.464;8.712;2022-08-19T02:06:09;22.70;75.10
25352;DHT22;13304;48.464;8.712;2022-08-19T02:08:37;22.70;75.10
25352;DHT22;13304;48.464;8.712;2022-08-19T02:11:03;22.70;75.40
25352;DHT22;13304;48.464;8.712;2022-08-19T02:13:31;22.60;75.70
25352;DHT22;13304;48.464;8.712;2022-08-19T02:15:57;22.60;76.00
25352;DHT22;13304;48.464;8.712;2022-08-19T02:18:23;22.60;76.00
25352;DHT22;13304;48.464;8.712;2022-08-19T02:20:49;22.60;76.10
25352;DHT22;13304;48.464;8.712;2022-08-19T02:23:16;22.50;76.20
25352;DHT22;13304;48.464;8.712;2022-08-19T02:25:45;22.50;76.40
25352;DHT22;13304;48.464;8.712;2022-08-19T02:28:11;22.50;77.30
25352;DHT22;13304;48.464;8.712;2022-08-19T02:30:37;22.50;76.70
25352;DHT22;13304;48.464;8.712;2022-08-19T02:33:04;22.50;76.70
25352;DHT22;13304;48.464;8.712;2022-08-19T02:35:30;22.40;76.80
25352;DHT22;13304;48.464;8.712;2022-08-19T02:37:56;22.40;76.90
25352;DHT22;13304;48.464;8.712;2022-08-19T02:40:50;22.40;76.90
25352;DHT22;13304;48.464;8.712;2022-08-19T02:43:20;22.40;77.00
25352;DHT22;13304;48.464;8.712;2022-08-19T02:45:47;22.40;77.00
25352;DHT22;13304;48.464;8.712;2022-08-19T02:48:18;22.40;77.00
25352;DHT22;13304;48.464;8.712;2022-08-19T02:50:45;22.40;77.20
25352;DHT22;13304;48.464;8.712;2022-08-19T02:53:11;22.30;77.10
25352;DHT22;13304;48.464;8.712;2022-08-19T02:55:45;22.30;77.30
25352;DHT22;13304;48.464;8.712;2022-08-19T02:58:12;22.30;77.90
25352;DHT22;13304;48.464;8.712;2022-08-19T03:00:49;22.30;77.70
25352;DHT22;13304;48.464;8.712;2022-08-19T03:03:16;22.20;77.90
25352;DHT22;13304;48.464;8.712;2022-08-19T03:05:46;22.20;77.80
25352;DHT22;13304;48.464;8.712;2022-08-19T03:08:13;22.20;77.90
25352;DHT22;13304;48.464;8.712;2022-08-19T03:10:46;22.20;78.10
25352;DHT22;13304;48.464;8.712;2022-08-19T03:13:14;22.20;78.30
25352;DHT22;13304;48.464;8.712;2022-08-19T03:15:47;22.20;78.10
25352;DHT22;13304;48.464;8.712;2022-08-19T03:18:14;22.10;78.70
25352;DHT22;13304;48.464;8.712;2022-08-19T03:20:44;22.10;78.40
25352;DHT22;13304;48.464;8.712;2022-08-19T03:23:11;22.10;78.40
25352;DHT22;13304;48.464;8.712;2022-08-19T03:25:43;22.10;78.50
25352;DHT22;13304;48.464;8.712;2022-08-19T03:28:13;22.10;78.60
25352;DHT22;13304;48.464;8.712;2022-08-19T03:30:41;22.10;78.80
25352;DHT22;13304;48.464;8.712;2022-08-19T03:33:09;22.10;78.80
25352;DHT22;13304;48.464;8.712;2022-08-19T03:35:35;22.10;78.80
25352;DHT22;13304;48.464;8.712;2022-08-19T03:38:05;22.10;78.80
25352;DHT22;13304;48.464;8.712;2022-08-19T03:40:32;22.10;78.80
25352;DHT22;13304;48.464;8.712;2022-08-19T03:43:00;22.10;78.90
25352;DHT22;13304;48.464;8.712;2022-08-19T03:45:26;22.10;78.70
25352;DHT22;13304;48.464;8.712;2022-08-19T03:47:53;22.10;78.80
25352;DHT22;13304;48.464;8.712;2022-08-19T03:50:19;22.10;78.80
25352;DHT22;13304;48.464;8.712;2022-08-19T03:52:50;22.10;78.80
25352;DHT22;13304;48.464;8.712;2022-08-19T03:55:16;22.10;78.90
25352;DHT22;13304;48.464;8.712;2022-08-19T03:57:42;22.10;78.70
25352;DHT22;13304;48.464;8.712;2022-08-19T04:00:09;22.10;78.80
25352;DHT22;13304;48.464;8.712;2022-08-19T04:02:35;22.10;78.80
25352;DHT22;13304;48.464;8.712;2022-08-19T04:05:01;22.10;79.00
25352;DHT22;13304;48.464;8.712;2022-08-19T04:07:27;22.10;79.00
25352;DHT22;13304;48.464;8.712;2022-08-19T04:09:52;22.10;79.10
25352;DHT22;13304;48.464;8.712;2022-08-19T04:12:18;22.10;79.00
25352;DHT22;13304;48.464;8.712;2022-08-19T04:14:46;22.10;79.00
25352;DHT22;13304;48.464;8.712;2022-08-19T04:17:12;22.10;79.10
25352;DHT22;13304;48.464;8.712;2022-08-19T04:19:38;22.10;79.10
25352;DHT22;13304;48.464;8.712;2022-08-19T04:22:05;22.10;79.00
25352;DHT22;13304;48.464;8.712;2022-08-19T04:24:31;22.10;79.00
25352;DHT22;13304;48.464;8.712;2022-08-19T04:27:02;22.10;79.00
25352;DHT22;13304;48.464;8.712;2022-08-19T04:29:29;22.00;78.80
25352;DHT22;13304;48.464;8.712;2022-08-19T04:31:56;22.00;79.00
25352;DHT22;13304;48.464;8.712;2022-08-19T04:34:26;22.00;79.00
25352;DHT22;13304;48.464;8.712;2022-08-19T04:36:54;22.00;79.10
25352;DHT22;13304;48.464;8.712;2022-08-19T04:39:24;22.00;79.10
25352;DHT22;13304;48.464;8.712;2022-08-19T04:42:15;22.00;79.20
25352;DHT22;13304;48.464;8.712;2022-08-19T04:44:59;22.00;79.10
25352;DHT22;13304;48.464;8.712;2022-08-19T04:47:26;22.10;79.10
25352;DHT22;13304;48.464;8.712;2022-08-19T04:49:51;22.00;79.10
25352;DHT22;13304;48.464;8.712;2022-08-19T04:52:17;22.00;79.20
25352;DHT22;13304;48.464;8.712;2022-08-19T04:54:43;22.00;79.10
25352;DHT22;13304;48.464;8.712;2022-08-19T04:57:09;22.00;78.90
25352;DHT22;13304;48.464;8.712;2022-08-19T04:59:37;22.00;78.90
25352;DHT22;13304;48.464;8.712;2022-08-19T05:02:03;22.00;79.00
25352;DHT22;13304;48.464;8.712;2022-08-19T05:04:29;22.00;79.10
25352;DHT22;13304;48.464;8.712;2022-08-19T05:06:57;22.00;79.20
25352;DHT22;13304;48.464;8.712;2022-08-19T05:09:23;22.00;79.20
25352;DHT22;13304;48.464;8.712;2022-08-19T05:11:49;22.00;79.20
25352;DHT22;13304;48.464;8.712;2022-08-19T05:14:19;22.00;79.20
25352;DHT22;13304;48.464;8.712;2022-08-19T05:16:46;22.00;79.20
25352;DHT22;13304;48.464;8.712;2022-08-19T05:19:12;22.00;79.10
25352;DHT22;13304;48.464;8.712;2022-08-19T05:21:56;22.00;79.20
25352;DHT22;13304;48.464;8.712;2022-08-19T05:24:40;22.00;79.00
25352;DHT22;13304;48.464;8.712;2022-08-19T05:27:06;22.00;79.00
25352;DHT22;13304;48.464;8.712;2022-08-19T05:29:33;22.00;79.10
25352;DHT22;13304;48.464;8.712;2022-08-19T05:32:04;22.00;79.10
25352;DHT22;13304;48.464;8.712;2022-08-19T05:34:30;22.00;79.20
25352;DHT22;13304;48.464;8.712;2022-08-19T05:36:59;22.00;79.20
25352;DHT22;13304;48.464;8.712;2022-08-19T05:39:29;22.00;79.10
25352;DHT22;13304;48.464;8.712;2022-08-19T05:41:57;22.00;79.10
25352;DHT22;13304;48.464;8.712;2022-08-19T05:44:25;22.10;79.10
25352;DHT22;13304;48.464;8.712;2022-08-19T05:46:51;22.10;79.00
25352;DHT22;13304;48.464;8.712;2022-08-19T05:49:19;22.10;79.00
25352;DHT22;13304;48.464;8.712;2022-08-19T05:51:45;22.10;79.00
25352;DHT22;13304;48.464;8.712;2022-08-19T05:54:11;22.20;79.10
25352;DHT22;13304;48.464;8.712;2022-08-19T05:56:42;22.20;79.00
25352;DHT22;13304;48.464;8.712;2022-08-19T05:59:09;22.20;78.90
25352;DHT22;13304;48.464;8.712;2022-08-19T06:01:41;22.20;78.90
25352;DHT22;13304;48.464;8.712;2022-08-19T06:04:08;22.20;79.10
25352;DHT22;13304;48.464;8.712;2022-08-19T06:06:34;22.20;78.90
25352;DHT22;13304;48.464;8.712;2022-08-19T06:09:02;22.20;78.80
25352;DHT22;13304;48.464;8.712;2022-08-19T06:11:41;22.20;78.60
25352;DHT22;13304;48.464;8.712;2022-08-19T06:14:12;22.20;78.60
25352;DHT22;13304;48.464;8.712;2022-08-19T06:16:41;22.30;78.80
25352;DHT22;13304;48.464;8.712;2022-08-19T06:19:10;22.30;79.00
25352;DHT22;13304;48.464;8.712;2022-08-19T06:21:40;22.30;79.00
25352;DHT22;13304;48.464;8.712;2022-08-19T06:24:07;22.40;79.10
25352;DHT22;13304;48.464;8.712;2022-08-19T06:26:36;22.40;79.00
25352;DHT22;13304;48.464;8.712;2022-08-19T06:29:07;22.40;78.80
25352;DHT22;13304;48.464;8.712;2022-08-19T06:31:34;22.40;78.80
25352;DHT22;13304;48.464;8.712;2022-08-19T06:34:04;22.40;78.80
25352;DHT22;13304;48.464;8.712;2022-08-19T06:36:40;22.40;78.90
25352;DHT22;13304;48.464;8.712;2022-08-19T06:39:19;22.40;78.50
25352;DHT22;13304;48.464;8.712;2022-08-19T06:41:47;22.40;78.60
25352;DHT22;13304;48.464;8.712;2022-08-19T06:44:14;22.40;78.50
25352;DHT22;13304;48.464;8.712;2022-08-19T06:46:40;22.40;78.40
25352;DHT22;13304;48.464;8.712;2022-08-19T06:49:09;22.40;78.20
25352;DHT22;13304;48.464;8.712;2022-08-19T06:51:39;22.50;78.20
25352;DHT22;13304;48.464;8.712;2022-08-19T06:54:05;22.50;78.10
25352;DHT22;13304;48.464;8.712;2022-08-19T06:56:32;22.50;77.80
25352;DHT22;13304;48.464;8.712;2022-08-19T06:59:05;22.50;77.40
25352;DHT22;13304;48.464;8.712;2022-08-19T07:01:38;22.50;77.30
25352;DHT22;13304;48.464;8.712;2022-08-19T07:04:06;22.50;77.40
25352;DHT22;13304;48.464;8.712;2022-08-19T07:06:32;22.50;77.10
25352;DHT22;13304;48.464;8.712;2022-08-19T07:08:58;22.50;76.80
25352;DHT22;13304;48.464;8.712;2022-08-19T07:11:27;22.50;76.70
25352;DHT22;13304;48.464;8.712;2022-08-19T07:13:53;22.50;76.70
25352;DHT22;13304;48.464;8.712;2022-08-19T07:16:20;22.60;76.60
25352;DHT22;13304;48.464;8.712;2022-08-19T07:18:47;22.60;76.50
25352;DHT22;13304;48.464;8.712;2022-08-19T07:21:20;22.60;76.30
25352;DHT22;13304;48.464;8.712;2022-08-19T07:23:50;22.60;76.00
25352;DHT22;13304;48.464;8.712;2022-08-19T07:26:25;22.60;76.20
25352;DHT22;13304;48.464;8.712;2022-08-19T07:28:51;22.70;76.20
25352;DHT22;13304;48.464;8.712;2022-08-19T07:31:23;22.70;75.90
25352;DHT22;13304;48.464;8.712;2022-08-19T07:33:53;22.70;75.60
25352;DHT22;13304;48.464;8.712;2022-08-19T07:36:27;22.70;75.70
25352;DHT22;13304;48.464;8.712;2022-08-19T07:38:59;22.70;75.90
25352;DHT22;13304;48.464;8.712;2022-08-19T07:41:28;22.80;75.60
25352;DHT22;13304;48.464;8.712;2022-08-19T07:43:54;22.80;75.60
25352;DHT22;13304;48.464;8.712;2022-08-19T07:46:21;22.80;75.20
25352;DHT22;13304;48.464;8.712;2022-08-19T07:48:48;22.80;75.20
25352;DHT22;13304;48.464;8.712;2022-08-19T07:51:20;22.80;75.20
25352;DHT22;13304;48.464;8.712;2022-08-19T07:53:47;22.80;74.90
25352;DHT22;13304;48.464;8.712;2022-08-19T07:56:18;22.80;75.10
25352;DHT22;13304;48.464;8.712;2022-08-19T07:58:47;22.80;75.00
25352;DHT22;13304;48.464;8.712;2022-08-19T08:01:21;22.80;74.90
25352;DHT22;13304;48.464;8.712;2022-08-19T08:03:49;22.80;74.70
25352;DHT22;13304;48.464;8.712;2022-08-19T08:06:34;22.90;74.90
25352;DHT22;13304;48.464;8.712;2022-08-19T08:09:34;22.90;74.80
25352;DHT22;13304;48.464;8.712;2022-08-19T08:12:06;22.90;74.50
25352;DHT22;13304;48.464;8.712;2022-08-19T08:17:09;22.90;74.60
25352;DHT22;13304;48.464;8.712;2022-08-19T08:19:38;23.00;74.50
25352;DHT22;13304;48.464;8.712;2022-08-19T08:22:07;23.00;74.20
25352;DHT22;13304;48.464;8.712;2022-08-19T08:24:33;23.10;74.40
25352;DHT22;13304;48.464;8.712;2022-08-19T08:27:00;23.10;74.00
25352;DHT22;13304;48.464;8.712;2022-08-19T08:29:28;23.10;73.80
25352;DHT22;13304;48.464;8.712;2022-08-19T08:31:55;23.10;74.00
25352;DHT22;13304;48.464;8.712;2022-08-19T08:34:22;23.10;73.80
25352;DHT22;13304;48.464;8.712;2022-08-19T08:36:48;23.10;73.70
25352;DHT22;13304;48.464;8.712;2022-08-19T08:39:18;23.20;73.80
25352;DHT22;13304;48.464;8.712;2022-08-19T08:47:03;23.30;72.90
25352;DHT22;13304;48.464;8.712;2022-08-19T08:54:35;23.50;72.60
25352;DHT22;13304;48.464;8.712;2022-08-19T08:57:05;23.50;72.30
25352;DHT22;13304;48.464;8.712;2022-08-19T08:59:37;23.50;71.60
25352;DHT22;13304;48.464;8.712;2022-08-19T09:02:04;23.50;71.80
25352;DHT22;13304;48.464;8.712;2022-08-19T09:04:30;23.60;71.90
25352;DHT22;13304;48.464;8.712;2022-08-19T09:09:41;23.50;71.00
25352;DHT22;13304;48.464;8.712;2022-08-19T09:14:59;23.60;70.00
25352;DHT22;13304;48.464;8.712;2022-08-19T09:17:28;23.60;69.80
25352;DHT22;13304;48.464;8.712;2022-08-19T09:20:18;23.60;69.90
25352;DHT22;13304;48.464;8.712;2022-08-19T09:22:43;23.60;70.10
25352;DHT22;13304;48.464;8.712;2022-08-19T09:25:12;23.60;70.00
25352;DHT22;13304;48.464;8.712;2022-08-19T09:27:40;23.60;69.60
25352;DHT22;13304;48.464;8.712;2022-08-19T09:30:08;23.50;69.30
25352;DHT22;13304;48.464;8.712;2022-08-19T09:32:34;23.60;69.30
25352;DHT22;13304;48.464;8.712;2022-08-19T09:35:03;23.60;69.10
25352;DHT22;13304;48.464;8.712;2022-08-19T09:37:28;23.60;69.00
25352;DHT22;13304;48.464;8.712;2022-08-19T09:39:55;23.60;69.20
25352;DHT22;13304;48.464;8.712;2022-08-19T09:42:20;23.60;68.90
25352;DHT22;13304;48.464;8.712;2022-08-19T09:44:46;23.50;68.50
25352;DHT22;13304;48.464;8.712;2022-08-19T09:47:14;23.50;68.60
25352;DHT22;13304;48.464;8.712;2022-08-19T09:49:40;23.50;68.70
25352;DHT22;13304;48.464;8.712;2022-08-19T09:52:09;23.40;68.70
25352;DHT22;13304;48.464;8.712;2022-08-19T09:54:35;23.40;68.70
25352;DHT22;13304;48.464;8.712;2022-08-19T09:57:01;23.30;69.10
25352;DHT22;13304;48.464;8.712;2022-08-19T09:59:27;23.40;69.30
25352;DHT22;13304;48.464;8.712;2022-08-19T10:01:53;23.50;68.80
25352;DHT22;13304;48.464;8.712;2022-08-19T10:04:19;23.50;68.70
25352;DHT22;13304;48.464;8.712;2022-08-19T10:06:49;23.50;68.20
25352;DHT22;13304;48.464;8.712;2022-08-19T10:09:16;23.50;68.40
25352;DHT22;13304;48.464;8.712;2022-08-19T10:11:44;23.50;68.70
25352;DHT22;13304;48.464;8.712;2022-08-19T10:14:15;23.50;68.80
25352;DHT22;13304;48.464;8.712;2022-08-19T10:16:42;23.60;68.50
25352;DHT22;13304;48.464;8.712;2022-08-19T10:19:08;23.60;68.30
25352;DHT22;13304;48.464;8.712;2022-08-19T10:21:35;23.50;68.50
25352;DHT22;13304;48.464;8.712;2022-08-19T10:24:03;23.60;68.50
25352;DHT22;13304;48.464;8.712;2022-08-19T10:26:37;23.70;69.00
25352;DHT22;13304;48.464;8.712;2022-08-19T10:29:04;23.70;67.90
25352;DHT22;13304;48.464;8.712;2022-08-19T10:31:33;23.80;69.10
25352;DHT22;13304;48.464;8.712;2022-08-19T10:33:59;23.80;68.00
25352;DHT22;13304;48.464;8.712;2022-08-19T10:36:31;23.90;68.10
25352;DHT22;13304;48.464;8.712;2022-08-19T10:38:59;23.90;67.30
25352;DHT22;13304;48.464;8.712;2022-08-19T10:41:28;23.90;66.80
25352;DHT22;13304;48.464;8.712;2022-08-19T10:44:04;24.00;66.50
25352;DHT22;13304;48.464;8.712;2022-08-19T10:46:32;24.00;66.40
25352;DHT22;13304;48.464;8.712;2022-08-19T10:48:59;24.10;66.50
25352;DHT22;13304;48.464;8.712;2022-08-19T10:51:26;24.10;66.10
25352;DHT22;13304;48.464;8.712;2022-08-19T10:54:12;24.10;65.90
25352;DHT22;13304;48.464;8.712;2022-08-19T10:56:38;24.20;65.60
25352;DHT22;13304;48.464;8.712;2022-08-19T10:59:26;24.20;65.80
25352;DHT22;13304;48.464;8.712;2022-08-19T11:02:00;24.20;65.00
25352;DHT22;13304;48.464;8.712;2022-08-19T11:04:27;24.30;65.00
25352;DHT22;13304;48.464;8.712;2022-08-19T11:06:53;24.30;64.60
25352;DHT22;13304;48.464;8.712;2022-08-19T11:09:22;24.30;64.30
25352;DHT22;13304;48.464;8.712;2022-08-19T11:11:52;24.30;64.30
25352;DHT22;13304;48.464;8.712;2022-08-19T11:14:22;24.40;64.70
25352;DHT22;13304;48.464;8.712;2022-08-19T11:16:49;24.40;64.00
25352;DHT22;13304;48.464;8.712;2022-08-19T11:19:16;24.50;63.90
25352;DHT22;13304;48.464;8.712;2022-08-19T11:21:48;24.50;63.60
25352;DHT22;13304;48.464;8.712;2022-08-19T11:24:18;24.50;62.60
25352;DHT22;13304;48.464;8.712;2022-08-19T11:26:46;24.50;62.70
25352;DHT22;13304;48.464;8.712;2022-08-19T11:29:15;24.50;62.40
25352;DHT22;13304;48.464;8.712;2022-08-19T11:31:43;24.50;61.40
25352;DHT22;13304;48.464;8.712;2022-08-19T11:34:13;24.50;61.60
25352;DHT22;13304;48.464;8.712;2022-08-19T11:36:41;24.50;61.30
25352;DHT22;13304;48.464;8.712;2022-08-19T11:39:09;24.50;60.70
25352;DHT22;13304;48.464;8.712;2022-08-19T11:41:35;24.50;61.10
25352;DHT22;13304;48.464;8.712;2022-08-19T11:44:02;24.50;60.70
25352;DHT22;13304;48.464;8.712;2022-08-19T11:46:29;24.50;60.20
25352;DHT22;13304;48.464;8.712;2022-08-19T11:48:58;24.50;59.80
25352;DHT22;13304;48.464;8.712;2022-08-19T11:51:25;24.40;59.20
25352;DHT22;13304;48.464;8.712;2022-08-19T11:53:53;24.40;59.10
25352;DHT22;13304;48.464;8.712;2022-08-19T11:56:22;24.40;59.20
25352;DHT22;13304;48.464;8.712;2022-08-19T11:58:51;24.50;59.40
25352;DHT22;13304;48.464;8.712;2022-08-19T12:01:19;24.50;59.80
25352;DHT22;13304;48.464;8.712;2022-08-19T12:03:47;24.50;59.50
25352;DHT22;13304;48.464;8.712;2022-08-19T12:06:15;24.50;59.70
25352;DHT22;13304;48.464;8.712;2022-08-19T12:08:43;24.50;59.50
25352;DHT22;13304;48.464;8.712;2022-08-19T12:11:10;24.60;59.80
25352;DHT22;13304;48.464;8.712;2022-08-19T12:13:37;24.60;59.40
25352;DHT22;13304;48.464;8.712;2022-08-19T12:16:16;24.60;59.50
25352;DHT22;13304;48.464;8.712;2022-08-19T12:18:43;24.50;59.40
25352;DHT22;13304;48.464;8.712;2022-08-19T12:21:15;24.50;59.70
25352;DHT22;13304;48.464;8.712;2022-08-19T12:23:42;24.60;60.00
25352;DHT22;13304;48.464;8.712;2022-08-19T12:26:10;24.60;60.40
25352;DHT22;13304;48.464;8.712;2022-08-19T12:28:38;24.60;60.40
25352;DHT22;13304;48.464;8.712;2022-08-19T12:31:05;24.60;60.80
25352;DHT22;13304;48.464;8.712;2022-08-19T12:33:31;24.60;60.80
25352;DHT22;13304;48.464;8.712;2022-08-19T12:36:02;24.70;61.20
25352;DHT22;13304;48.464;8.712;2022-08-19T12:38:29;24.70;61.40
25352;DHT22;13304;48.464;8.712;2022-08-19T12:40:55;24.80;60.70
25352;DHT22;13304;48.464;8.712;2022-08-19T12:43:20;24.90;61.00
25352;DHT22;13304;48.464;8.712;2022-08-19T12:45:46;24.90;60.20
25352;DHT22;13304;48.464;8.712;2022-08-19T12:48:13;25.00;59.90
25352;DHT22;13304;48.464;8.712;2022-08-19T12:50:43;25.00;59.40
25352;DHT22;13304;48.464;8.712;2022-08-19T12:53:11;25.00;59.50
25352;DHT22;13304;48.464;8.712;2022-08-19T12:55:40;25.00;59.40
25352;DHT22;13304;48.464;8.712;2022-08-19T12:58:06;25.00;58.70
25352;DHT22;13304;48.464;8.712;2022-08-19T13:00:32;25.00;59.10
25352;DHT22;13304;48.464;8.712;2022-08-19T13:03:01;25.00;58.90
25352;DHT22;13304;48.464;8.712;2022-08-19T13:05:29;24.90;58.70
25352;DHT22;13304;48.464;8.712;2022-08-19T13:07:56;24.90;58.40
25352;DHT22;13304;48.464;8.712;2022-08-19T13:10:27;24.90;58.40
25352;DHT22;13304;48.464;8.712;2022-08-19T13:12:53;24.90;58.40
25352;DHT22;13304;48.464;8.712;2022-08-19T13:15:20;25.00;58.30
25352;DHT22;13304;48.464;8.712;2022-08-19T13:17:49;25.00;58.40
25352;DHT22;13304;48.464;8.712;2022-08-19T13:20:19;25.00;58.30
25352;DHT22;13304;48.464;8.712;2022-08-19T13:22:46;25.00;58.40
25352;DHT22;13304;48.464;8.712;2022-08-19T13:25:15;25.10;58.10
25352;DHT22;13304;48.464;8.712;2022-08-19T13:27:43;25.00;57.80
25352;DHT22;13304;48.464;8.712;2022-08-19T13:30:11;25.10;57.90
25352;DHT22;13304;48.464;8.712;2022-08-19T13:32:56;25.10;57.60
25352;DHT22;13304;48.464;8.712;2022-08-19T13:35:58;25.00;57.50
25352;DHT22;13304;48.464;8.712;2022-08-19T13:38:26;25.00;57.40
25352;DHT22;13304;48.464;8.712;2022-08-19T13:40:53;25.00;57.80
25352;DHT22;13304;48.464;8.712;2022-08-19T13:43:24;25.00;57.90
25352;DHT22;13304;48.464;8.712;2022-08-19T13:45:52;24.90;58.00
25352;DHT22;13304;48.464;8.712;2022-08-19T13:48:21;24.90;57.80
25352;DHT22;13304;48.464;8.712;2022-08-19T13:50:47;25.00;58.10
25352;DHT22;13304;48.464;8.712;2022-08-19T13:53:14;25.00;58.30
25352;DHT22;13304;48.464;8.712;2022-08-19T13:55:41;25.00;57.90
25352;DHT22;13304;48.464;8.712;2022-08-19T13:58:08;25.10;57.60
25352;DHT22;13304;48.464;8.712;2022-08-19T14:00:39;25.10;57.60
25352;DHT22;13304;48.464;8.712;2022-08-19T14:03:05;25.20;57.50
25352;DHT22;13304;48.464;8.712;2022-08-19T14:05:32;25.20;57.40
25352;DHT22;13304;48.464;8.712;2022-08-19T14:07:58;25.20;56.50
25352;DHT22;13304;48.464;8.712;2022-08-19T14:10:25;25.30;56.70
25352;DHT22;13304;48.464;8.712;2022-08-19T14:12:56;25.30;56.30
25352;DHT22;13304;48.464;8.712;2022-08-19T14:15:24;25.20;56.20
25352;DHT22;13304;48.464;8.712;2022-08-19T14:17:50;25.20;56.40
25352;DHT22;13304;48.464;8.712;2022-08-19T14:20:20;25.20;56.50
25352;DHT22;13304;48.464;8.712;2022-08-19T14:22:49;25.10;56.50
25352;DHT22;13304;48.464;8.712;2022-08-19T14:25:18;25.10;56.60
25352;DHT22;13304;48.464;8.712;2022-08-19T14:27:46;25.10;57.50
25352;DHT22;13304;48.464;8.712;2022-08-19T14:30:14;25.10;57.20
25352;DHT22;13304;48.464;8.712;2022-08-19T14:32:41;25.10;57.30
25352;DHT22;13304;48.464;8.712;2022-08-19T14:35:09;25.00;57.10
25352;DHT22;13304;48.464;8.712;2022-08-19T14:37:35;25.00;57.20
25352;DHT22;13304;48.464;8.712;2022-08-19T14:40:02;25.00;57.20
25352;DHT22;13304;48.464;8.712;2022-08-19T14:42:29;25.00;57.20
25352;DHT22;13304;48.464;8.712;2022-08-19T14:44:58;24.90;57.20
25352;DHT22;13304;48.464;8.712;2022-08-19T14:47:24;24.90;57.90
25352;DHT22;13304;48.464;8.712;2022-08-19T14:49:53;24.80;57.50
25352;DHT22;13304;48.464;8.712;2022-08-19T14:52:19;24.90;57.60
25352;DHT22;13304;48.464;8.712;2022-08-19T14:54:46;24.90;57.80
25352;DHT22;13304;48.464;8.712;2022-08-19T14:57:13;24.90;57.90
25352;DHT22;13304;48.464;8.712;2022-08-19T14:59:42;25.00;58.20
25352;DHT22;13304;48.464;8.712;2022-08-19T15:02:09;25.00;58.60
25352;DHT22;13304;48.464;8.712;2022-08-19T15:04:35;25.00;58.70
25352;DHT22;13304;48.464;8.712;2022-08-19T15:07:00;25.00;58.70
25352;DHT22;13304;48.464;8.712;2022-08-19T15:09:30;25.00;58.80
25352;DHT22;13304;48.464;8.712;2022-08-19T15:11:56;25.10;59.50
25352;DHT22;13304;48.464;8.712;2022-08-19T15:14:24;25.10;59.50
25352;DHT22;13304;48.464;8.712;2022-08-19T15:16:50;25.10;59.10
25352;DHT22;13304;48.464;8.712;2022-08-19T15:19:16;25.10;59.00
25352;DHT22;13304;48.464;8.712;2022-08-19T15:21:42;25.20;58.80
25352;DHT22;13304;48.464;8.712;2022-08-19T15:24:08;25.20;58.00
25352;DHT22;13304;48.464;8.712;2022-08-19T15:26:34;25.20;58.20
25352;DHT22;13304;48.464;8.712;2022-08-19T15:29:01;25.20;57.70
25352;DHT22;13304;48.464;8.712;2022-08-19T15:31:28;25.20;57.00
25352;DHT22;13304;48.464;8.712;2022-08-19T15:33:55;25.30;56.10
25352;DHT22;13304;48.464;8.712;2022-08-19T15:36:23;25.30;55.80
25352;DHT22;13304;48.464;8.712;2022-08-19T15:38:49;25.30;55.60
25352;DHT22;13304;48.464;8.712;2022-08-19T15:41:24;25.30;55.50
25352;DHT22;13304;48.464;8.712;2022-08-19T15:43:55;25.30;55.30
25352;DHT22;13304;48.464;8.712;2022-08-19T15:46:23;25.40;55.50
25352;DHT22;13304;48.464;8.712;2022-08-19T15:48:51;25.40;55.60
25352;DHT22;13304;48.464;8.712;2022-08-19T15:51:18;25.50;55.90
25352;DHT22;13304;48.464;8.712;2022-08-19T15:53:44;25.50;55.80
25352;DHT22;13304;48.464;8.712;2022-08-19T15:56:10;25.50;56.10
25352;DHT22;13304;48.464;8.712;2022-08-19T15:58:37;25.50;56.10